sensor_id;sensor_type;location;lat;lon;timestamp;P1;durP1;ratioP1;P2;durP2;ratioP2
28762;SDS011;15918;51.270;6.522;2022-08-01T00:01:33;4.28;;;2.92;;
28762;SDS011;15918;51.270;6.522;2022-08-01T00:03:58;3.38;;;2.80;;
28762;SDS011;15918;51.270;6.522;2022-08-01T00:06:24;4.55;;;3.40;;
28762;SDS011;15918;51.270;6.522;2022-08-01T00:08:50;4.32;;;3.28;;
28762;SDS011;15918;51.270;6.522;2022-08-01T00:11:16;6.68;;;3.78;;
28762;SDS011;15918;51.270;6.522;2022-08-01T00:13:41;4.18;;;3.60;;
28762;SDS011;15918;51.270;6.522;2022-08-01T00:16:07;4.68;;;3.20;;
28762;SDS011;15918;51.270;6.522;2022-08-01T00:18:33;4.10;;;3.67;;
28762;SDS011;15918;51.270;6.522;2022-08-01T00:21:00;6.22;;;3.38;;
28762;SDS011;15918;51.270;6.522;2022-08-01T00:23:27;6.18;;;3.90;;
28762;SDS011;15918;51.270;6.522;2022-08-01T00:25:52;5.50;;;3.50;;
28762;SDS011;15918;51.270;6.522;2022-08-01T00:28:18;5.32;;;3.30;;
28762;SDS011;15918;51.270;6.522;2022-08-01T00:30:44;4.15;;;3.38;;
28762;SDS011;15918;51.270;6.522;2022-08-01T00:33:09;3.72;;;3.42;;
28762;SDS011;15918;51.270;6.522;2022-08-01T00:35:35;4.57;;;3.25;;
28762;SDS011;15918;51.270;6.522;2022-08-01T00:38:00;6.43;;;3.92;;
28762;SDS011;15918;51.270;6.522;2022-08-01T00:40:26;5.30;;;3.95;;
28762;SDS011;15918;51.270;6.522;2022-08-01T00:42:51;6.93;;;3.60;;
28762;SDS011;15918;51.270;6.522;2022-08-01T00:45:17;4.72;;;3.22;;
28762;SDS011;15918;51.270;6.522;2022-08-01T00:47:43;5.88;;;3.50;;
28762;SDS011;15918;51.270;6.522;2022-08-01T00:50:08;3.30;;;3.00;;
28762;SDS011;15918;51.270;6.522;2022-08-01T00:52:35;3.38;;;2.78;;
28762;SDS011;15918;51.270;6.522;2022-08-01T00:55:00;5.10;;;3.35;;
28762;SDS011;15918;51.270;6.522;2022-08-01T00:57:26;4.38;;;3.13;;
28762;SDS011;15918;51.270;6.522;2022-08-01T00:59:52;6.53;;;3.92;;
28762;SDS011;15918;51.270;6.522;2022-08-01T01:02:18;4.88;;;3.25;;
28762;SDS011;15918;51.270;6.522;2022-08-01T01:04:44;4.53;;;3.55;;
28762;SDS011;15918;51.270;6.522;2022-08-01T01:07:12;6.20;;;3.10;;
28762;SDS011;15918;51.270;6.522;2022-08-01T01:10:00;3.75;;;3.40;;
28762;SDS011;15918;51.270;6.522;2022-08-01T01:12:36;4.88;;;3.97;;
28762;SDS011;15918;51.270;6.522;2022-08-01T01:15:08;8.40;;;4.03;;
28762;SDS011;15918;51.270;6.522;2022-08-01T01:20:23;4.70;;;3.42;;
28762;SDS011;15918;51.270;6.522;2022-08-01T01:28:33;4.60;;;3.58;;
28762;SDS011;15918;51.270;6.522;2022-08-01T01:30:59;7.07;;;4.05;;
28762;SDS011;15918;51.270;6.522;2022-08-01T01:33:26;6.75;;;3.97;;
28762;SDS011;15918;51.270;6.522;2022-08-01T01:35:59;5.70;;;4.07;;
28762;SDS011;15918;51.270;6.522;2022-08-01T01:38:29;6.15;;;4.00;;
28762;SDS011;15918;51.270;6.522;2022-08-01T01:40:59;4.78;;;3.70;;
28762;SDS011;15918;51.270;6.522;2022-08-01T01:43:27;5.85;;;4.32;;
28762;SDS011;15918;51.270;6.522;2022-08-01T01:45:54;7.10;;;4.45;;
28762;SDS011;15918;51.270;6.522;2022-08-01T01:48:21;8.95;;;4.93;;
28762;SDS011;15918;51.270;6.522;2022-08-01T01:50:50;5.43;;;4.63;;
28762;SDS011;15918;51.270;6.522;2022-08-01T01:53:18;5.45;;;4.63;;
28762;SDS011;15918;51.270;6.522;2022-08-01T01:55:46;6.60;;;4.75;;
28762;SDS011;15918;51.270;6.522;2022-08-01T01:58:15;9.05;;;5.03;;
28762;SDS011;15918;51.270;6.522;2022-08-01T02:00:42;9.27;;;4.93;;
28762;SDS011;15918;51.270;6.522;2022-08-01T02:03:11;7.25;;;4.95;;
28762;SDS011;15918;51.270;6.522;2022-08-01T02:05:38;6.07;;;4.80;;
28762;SDS011;15918;51.270;6.522;2022-08-01T02:08:04;6.47;;;5.13;;
28762;SDS011;15918;51.270;6.522;2022-08-01T02:10:32;5.90;;;5.05;;
28762;SDS011;15918;51.270;6.522;2022-08-01T02:13:01;7.38;;;5.15;;
28762;SDS011;15918;51.270;6.522;2022-08-01T02:15:29;7.28;;;5.05;;
28762;SDS011;15918;51.270;6.522;2022-08-01T02:17:56;8.75;;;5.60;;
28762;SDS011;15918;51.270;6.522;2022-08-01T02:20:22;6.00;;;5.40;;
28762;SDS011;15918;51.270;6.522;2022-08-01T02:22:52;6.18;;;5.45;;
28762;SDS011;15918;51.270;6.522;2022-08-01T02:25:30;6.38;;;5.25;;
28762;SDS011;15918;51.270;6.522;2022-08-01T02:27:59;6.85;;;5.15;;
28762;SDS011;15918;51.270;6.522;2022-08-01T02:30:33;6.03;;;5.43;;
28762;SDS011;15918;51.270;6.522;2022-08-01T02:33:08;9.38;;;5.65;;
28762;SDS011;15918;51.270;6.522;2022-08-01T02:35:41;8.45;;;4.57;;
28762;SDS011;15918;51.270;6.522;2022-08-01T02:38:10;6.18;;;5.57;;
28762;SDS011;15918;51.270;6.522;2022-08-01T02:40:39;6.72;;;5.47;;
28762;SDS011;15918;51.270;6.522;2022-08-01T02:43:08;8.38;;;5.65;;
28762;SDS011;15918;51.270;6.522;2022-08-01T02:45:35;7.35;;;5.57;;
28762;SDS011;15918;51.270;6.522;2022-08-01T02:48:07;8.65;;;5.47;;
28762;SDS011;15918;51.270;6.522;2022-08-01T02:50:36;7.10;;;5.70;;
28762;SDS011;15918;51.270;6.522;2022-08-01T02:53:03;7.25;;;5.88;;
28762;SDS011;15918;51.270;6.522;2022-08-01T02:55:31;7.82;;;6.15;;
28762;SDS011;15918;51.270;6.522;2022-08-01T02:57:58;7.57;;;5.75;;
28762;SDS011;15918;51.270;6.522;2022-08-01T03:00:25;9.55;;;6.22;;
28762;SDS011;15918;51.270;6.522;2022-08-01T03:02:52;8.10;;;5.75;;
28762;SDS011;15918;51.270;6.522;2022-08-01T03:05:20;9.70;;;6.10;;
28762;SDS011;15918;51.270;6.522;2022-08-01T03:07:46;7.88;;;6.20;;
28762;SDS011;15918;51.270;6.522;2022-08-01T03:10:13;9.52;;;6.30;;
28762;SDS011;15918;51.270;6.522;2022-08-01T03:12:41;10.07;;;6.85;;
28762;SDS011;15918;51.270;6.522;2022-08-01T03:15:08;11.27;;;7.30;;
28762;SDS011;15918;51.270;6.522;2022-08-01T03:17:35;7.65;;;6.32;;
28762;SDS011;15918;51.270;6.522;2022-08-01T03:20:03;8.60;;;6.72;;
28762;SDS011;15918;51.270;6.522;2022-08-01T03:22:30;11.02;;;7.18;;
28762;SDS011;15918;51.270;6.522;2022-08-01T03:24:57;7.10;;;6.40;;
28762;SDS011;15918;51.270;6.522;2022-08-01T03:27:24;7.32;;;6.50;;
28762;SDS011;15918;51.270;6.522;2022-08-01T03:29:50;10.88;;;7.60;;
28762;SDS011;15918;51.270;6.522;2022-08-01T03:32:17;7.47;;;6.72;;
28762;SDS011;15918;51.270;6.522;2022-08-01T03:34:44;10.63;;;7.88;;
28762;SDS011;15918;51.270;6.522;2022-08-01T03:37:14;10.23;;;8.30;;
28762;SDS011;15918;51.270;6.522;2022-08-01T03:39:50;8.80;;;7.90;;
28762;SDS011;15918;51.270;6.522;2022-08-01T03:42:44;11.68;;;9.15;;
28762;SDS011;15918;51.270;6.522;2022-08-01T03:45:15;10.95;;;8.50;;
28762;SDS011;15918;51.270;6.522;2022-08-01T03:47:46;11.30;;;8.90;;
28762;SDS011;15918;51.270;6.522;2022-08-01T03:50:13;13.95;;;8.50;;
28762;SDS011;15918;51.270;6.522;2022-08-01T03:52:41;11.95;;;9.63;;
28762;SDS011;15918;51.270;6.522;2022-08-01T03:55:09;11.60;;;8.90;;
28762;SDS011;15918;51.270;6.522;2022-08-01T03:57:37;15.32;;;9.65;;
28762;SDS011;15918;51.270;6.522;2022-08-01T04:00:05;10.15;;;8.45;;
28762;SDS011;15918;51.270;6.522;2022-08-01T04:02:33;11.52;;;9.45;;
28762;SDS011;15918;51.270;6.522;2022-08-01T04:04:59;10.93;;;9.52;;
28762;SDS011;15918;51.270;6.522;2022-08-01T04:07:26;10.52;;;8.85;;
28762;SDS011;15918;51.270;6.522;2022-08-01T04:09:53;11.68;;;9.38;;
28762;SDS011;15918;51.270;6.522;2022-08-01T04:12:19;11.25;;;10.02;;
28762;SDS011;15918;51.270;6.522;2022-08-01T04:14:45;11.32;;;9.57;;
28762;SDS011;15918;51.270;6.522;2022-08-01T04:17:11;12.93;;;9.63;;
28762;SDS011;15918;51.270;6.522;2022-08-01T04:19:37;11.88;;;9.48;;
28762;SDS011;15918;51.270;6.522;2022-08-01T04:22:03;12.50;;;10.40;;
28762;SDS011;15918;51.270;6.522;2022-08-01T04:24:29;9.82;;;8.77;;
28762;SDS011;15918;51.270;6.522;2022-08-01T04:26:58;11.50;;;9.93;;
28762;SDS011;15918;51.270;6.522;2022-08-01T04:29:26;12.63;;;9.60;;
28762;SDS011;15918;51.270;6.522;2022-08-01T04:31:54;11.52;;;10.00;;
28762;SDS011;15918;51.270;6.522;2022-08-01T04:34:23;16.35;;;10.40;;
28762;SDS011;15918;51.270;6.522;2022-08-01T04:36:51;10.48;;;9.48;;
28762;SDS011;15918;51.270;6.522;2022-08-01T04:39:19;11.52;;;10.43;;
28762;SDS011;15918;51.270;6.522;2022-08-01T04:41:48;11.07;;;9.57;;
28762;SDS011;15918;51.270;6.522;2022-08-01T04:44:15;12.52;;;9.95;;
28762;SDS011;15918;51.270;6.522;2022-08-01T04:46:41;13.23;;;10.27;;
28762;SDS011;15918;51.270;6.522;2022-08-01T04:49:08;11.77;;;10.48;;
28762;SDS011;15918;51.270;6.522;2022-08-01T04:51:36;14.60;;;11.07;;
28762;SDS011;15918;51.270;6.522;2022-08-01T04:54:14;12.77;;;10.35;;
28762;SDS011;15918;51.270;6.522;2022-08-01T04:56:39;12.50;;;10.30;;
28762;SDS011;15918;51.270;6.522;2022-08-01T04:59:06;12.20;;;10.75;;
28762;SDS011;15918;51.270;6.522;2022-08-01T05:01:50;14.43;;;11.57;;
28762;SDS011;15918;51.270;6.522;2022-08-01T05:04:16;14.70;;;10.48;;
28762;SDS011;15918;51.270;6.522;2022-08-01T05:06:41;12.73;;;9.98;;
28762;SDS011;15918;51.270;6.522;2022-08-01T05:09:07;13.60;;;10.77;;
28762;SDS011;15918;51.270;6.522;2022-08-01T05:11:32;12.80;;;10.15;;
28762;SDS011;15918;51.270;6.522;2022-08-01T05:13:58;14.15;;;9.95;;
28762;SDS011;15918;51.270;6.522;2022-08-01T05:16:23;13.50;;;9.82;;
28762;SDS011;15918;51.270;6.522;2022-08-01T05:18:49;16.83;;;10.25;;
28762;SDS011;15918;51.270;6.522;2022-08-01T05:21:14;11.07;;;9.98;;
28762;SDS011;15918;51.270;6.522;2022-08-01T05:23:40;11.82;;;9.63;;
28762;SDS011;15918;51.270;6.522;2022-08-01T05:26:06;11.05;;;9.85;;
28762;SDS011;15918;51.270;6.522;2022-08-01T05:28:31;13.93;;;10.65;;
28762;SDS011;15918;51.270;6.522;2022-08-01T05:30:57;13.32;;;10.70;;
28762;SDS011;15918;51.270;6.522;2022-08-01T05:33:22;12.07;;;10.45;;
28762;SDS011;15918;51.270;6.522;2022-08-01T05:35:48;12.55;;;10.50;;
28762;SDS011;15918;51.270;6.522;2022-08-01T05:38:13;13.57;;;10.77;;
28762;SDS011;15918;51.270;6.522;2022-08-01T05:40:39;13.75;;;10.95;;
28762;SDS011;15918;51.270;6.522;2022-08-01T05:43:04;11.80;;;10.00;;
28762;SDS011;15918;51.270;6.522;2022-08-01T05:45:30;14.35;;;10.02;;
28762;SDS011;15918;51.270;6.522;2022-08-01T05:47:56;14.48;;;10.38;;
28762;SDS011;15918;51.270;6.522;2022-08-01T05:50:21;13.65;;;10.25;;
28762;SDS011;15918;51.270;6.522;2022-08-01T05:52:47;11.52;;;9.75;;
28762;SDS011;15918;51.270;6.522;2022-08-01T05:55:12;11.98;;;10.30;;
28762;SDS011;15918;51.270;6.522;2022-08-01T05:57:38;10.50;;;9.35;;
28762;SDS011;15918;51.270;6.522;2022-08-01T06:00:04;17.27;;;10.52;;
28762;SDS011;15918;51.270;6.522;2022-08-01T06:02:30;13.85;;;9.55;;
28762;SDS011;15918;51.270;6.522;2022-08-01T06:04:55;11.48;;;9.55;;
28762;SDS011;15918;51.270;6.522;2022-08-01T06:07:21;10.55;;;9.10;;
28762;SDS011;15918;51.270;6.522;2022-08-01T06:09:47;11.82;;;10.43;;
28762;SDS011;15918;51.270;6.522;2022-08-01T06:12:12;13.07;;;8.77;;
28762;SDS011;15918;51.270;6.522;2022-08-01T06:14:38;13.48;;;10.60;;
28762;SDS011;15918;51.270;6.522;2022-08-01T06:17:03;11.55;;;9.80;;
28762;SDS011;15918;51.270;6.522;2022-08-01T06:19:29;11.73;;;9.50;;
28762;SDS011;15918;51.270;6.522;2022-08-01T06:21:54;13.68;;;9.30;;
28762;SDS011;15918;51.270;6.522;2022-08-01T06:24:20;10.82;;;8.45;;
28762;SDS011;15918;51.270;6.522;2022-08-01T06:26:48;13.70;;;8.82;;
28762;SDS011;15918;51.270;6.522;2022-08-01T06:29:13;10.35;;;8.82;;
28762;SDS011;15918;51.270;6.522;2022-08-01T06:31:39;11.55;;;8.45;;
28762;SDS011;15918;51.270;6.522;2022-08-01T06:34:05;9.88;;;8.02;;
28762;SDS011;15918;51.270;6.522;2022-08-01T06:36:30;13.18;;;9.10;;
28762;SDS011;15918;51.270;6.522;2022-08-01T06:38:56;11.80;;;8.75;;
28762;SDS011;15918;51.270;6.522;2022-08-01T06:41:21;11.70;;;8.68;;
28762;SDS011;15918;51.270;6.522;2022-08-01T06:43:47;11.57;;;8.60;;
28762;SDS011;15918;51.270;6.522;2022-08-01T06:46:13;8.88;;;8.00;;
28762;SDS011;15918;51.270;6.522;2022-08-01T06:48:38;9.27;;;7.85;;
28762;SDS011;15918;51.270;6.522;2022-08-01T06:51:04;12.40;;;8.05;;
28762;SDS011;15918;51.270;6.522;2022-08-01T06:53:33;11.40;;;8.90;;
28762;SDS011;15918;51.270;6.522;2022-08-01T06:56:01;8.90;;;8.05;;
28762;SDS011;15918;51.270;6.522;2022-08-01T06:58:27;10.20;;;8.60;;
28762;SDS011;15918;51.270;6.522;2022-08-01T07:00:52;8.63;;;7.65;;
28762;SDS011;15918;51.270;6.522;2022-08-01T07:03:18;9.43;;;7.75;;
28762;SDS011;15918;51.270;6.522;2022-08-01T07:05:43;10.82;;;8.20;;
28762;SDS011;15918;51.270;6.522;2022-08-01T07:08:09;9.43;;;7.93;;
28762;SDS011;15918;51.270;6.522;2022-08-01T07:10:34;10.45;;;8.02;;
28762;SDS011;15918;51.270;6.522;2022-08-01T07:13:00;7.65;;;6.78;;
28762;SDS011;15918;51.270;6.522;2022-08-01T07:15:26;9.25;;;7.25;;
28762;SDS011;15918;51.270;6.522;2022-08-01T07:17:52;8.77;;;7.32;;
28762;SDS011;15918;51.270;6.522;2022-08-01T07:20:17;9.07;;;7.30;;
28762;SDS011;15918;51.270;6.522;2022-08-01T07:22:43;9.02;;;7.60;;
28762;SDS011;15918;51.270;6.522;2022-08-01T07:25:09;8.65;;;7.75;;
28762;SDS011;15918;51.270;6.522;2022-08-01T07:27:35;9.70;;;7.63;;
28762;SDS011;15918;51.270;6.522;2022-08-01T07:30:01;8.40;;;7.47;;
28762;SDS011;15918;51.270;6.522;2022-08-01T07:32:29;9.50;;;7.53;;
28762;SDS011;15918;51.270;6.522;2022-08-01T07:34:55;8.65;;;7.75;;
28762;SDS011;15918;51.270;6.522;2022-08-01T07:37:20;8.23;;;7.15;;
28762;SDS011;15918;51.270;6.522;2022-08-01T07:39:46;9.52;;;7.03;;
28762;SDS011;15918;51.270;6.522;2022-08-01T07:42:11;8.57;;;6.82;;
28762;SDS011;15918;51.270;6.522;2022-08-01T07:44:37;8.13;;;7.32;;
28762;SDS011;15918;51.270;6.522;2022-08-01T07:47:03;9.50;;;7.10;;
28762;SDS011;15918;51.270;6.522;2022-08-01T07:49:29;10.23;;;7.05;;
28762;SDS011;15918;51.270;6.522;2022-08-01T07:51:55;8.45;;;7.00;;
28762;SDS011;15918;51.270;6.522;2022-08-01T07:54:20;8.38;;;7.15;;
28762;SDS011;15918;51.270;6.522;2022-08-01T07:56:48;8.88;;;7.40;;
28762;SDS011;15918;51.270;6.522;2022-08-01T07:59:14;8.93;;;7.45;;
28762;SDS011;15918;51.270;6.522;2022-08-01T08:01:40;8.50;;;7.63;;
28762;SDS011;15918;51.270;6.522;2022-08-01T08:04:06;7.53;;;6.65;;
28762;SDS011;15918;51.270;6.522;2022-08-01T08:06:32;9.73;;;7.28;;
28762;SDS011;15918;51.270;6.522;2022-08-01T08:08:58;9.35;;;7.03;;
28762;SDS011;15918;51.270;6.522;2022-08-01T08:11:23;7.93;;;6.43;;
28762;SDS011;15918;51.270;6.522;2022-08-01T08:13:49;7.78;;;6.45;;
28762;SDS011;15918;51.270;6.522;2022-08-01T08:16:14;7.05;;;5.65;;
28762;SDS011;15918;51.270;6.522;2022-08-01T08:18:40;6.03;;;4.80;;
28762;SDS011;15918;51.270;6.522;2022-08-01T08:21:06;5.60;;;4.00;;
28762;SDS011;15918;51.270;6.522;2022-08-01T08:23:31;5.85;;;4.15;;
28762;SDS011;15918;51.270;6.522;2022-08-01T08:26:15;5.03;;;4.43;;
28762;SDS011;15918;51.270;6.522;2022-08-01T08:28:41;6.60;;;3.75;;
28762;SDS011;15918;51.270;6.522;2022-08-01T08:31:07;5.57;;;4.47;;
28762;SDS011;15918;51.270;6.522;2022-08-01T08:33:33;4.95;;;4.22;;
28762;SDS011;15918;51.270;6.522;2022-08-01T08:35:58;6.20;;;4.38;;
28762;SDS011;15918;51.270;6.522;2022-08-01T08:38:24;7.00;;;4.80;;
28762;SDS011;15918;51.270;6.522;2022-08-01T08:40:52;5.03;;;4.53;;
28762;SDS011;15918;51.270;6.522;2022-08-01T08:43:18;5.47;;;4.97;;
28762;SDS011;15918;51.270;6.522;2022-08-01T08:45:44;6.18;;;4.82;;
28762;SDS011;15918;51.270;6.522;2022-08-01T08:48:10;6.22;;;5.25;;
28762;SDS011;15918;51.270;6.522;2022-08-01T08:50:37;6.72;;;5.38;;
28762;SDS011;15918;51.270;6.522;2022-08-01T08:53:03;7.45;;;4.93;;
28762;SDS011;15918;51.270;6.522;2022-08-01T08:55:29;6.03;;;5.10;;
28762;SDS011;15918;51.270;6.522;2022-08-01T08:57:55;8.15;;;5.13;;
28762;SDS011;15918;51.270;6.522;2022-08-01T09:00:21;5.97;;;4.40;;
28762;SDS011;15918;51.270;6.522;2022-08-01T09:02:47;5.68;;;4.85;;
28762;SDS011;15918;51.270;6.522;2022-08-01T09:05:21;5.47;;;4.68;;
28762;SDS011;15918;51.270;6.522;2022-08-01T09:07:50;5.00;;;4.40;;
28762;SDS011;15918;51.270;6.522;2022-08-01T09:10:19;7.30;;;5.07;;
28762;SDS011;15918;51.270;6.522;2022-08-01T09:15:41;6.55;;;4.78;;
28762;SDS011;15918;51.270;6.522;2022-08-01T09:18:08;8.02;;;4.72;;
28762;SDS011;15918;51.270;6.522;2022-08-01T09:20:49;4.60;;;4.15;;
28762;SDS011;15918;51.270;6.522;2022-08-01T09:26:05;6.63;;;4.60;;
28762;SDS011;15918;51.270;6.522;2022-08-01T09:28:31;4.03;;;3.67;;
28762;SDS011;15918;51.270;6.522;2022-08-01T09:30:57;4.50;;;3.83;;
28762;SDS011;15918;51.270;6.522;2022-08-01T09:33:24;4.85;;;3.80;;
28762;SDS011;15918;51.270;6.522;2022-08-01T09:35:54;5.57;;;4.07;;
28762;SDS011;15918;51.270;6.522;2022-08-01T09:38:22;4.55;;;3.92;;
28762;SDS011;15918;51.270;6.522;2022-08-01T09:40:52;6.82;;;3.88;;
28762;SDS011;15918;51.270;6.522;2022-08-01T09:43:20;4.43;;;3.40;;
28762;SDS011;15918;51.270;6.522;2022-08-01T09:45:47;4.25;;;3.50;;
28762;SDS011;15918;51.270;6.522;2022-08-01T09:48:14;4.32;;;3.50;;
28762;SDS011;15918;51.270;6.522;2022-08-01T09:50:41;3.60;;;3.25;;
28762;SDS011;15918;51.270;6.522;2022-08-01T09:53:08;3.35;;;2.78;;
28762;SDS011;15918;51.270;6.522;2022-08-01T09:55:34;5.13;;;3.30;;
28762;SDS011;15918;51.270;6.522;2022-08-01T09:58:01;3.22;;;2.92;;
28762;SDS011;15918;51.270;6.522;2022-08-01T10:00:29;3.05;;;2.75;;
28762;SDS011;15918;51.270;6.522;2022-08-01T10:02:55;3.05;;;2.70;;
28762;SDS011;15918;51.270;6.522;2022-08-01T10:05:29;3.80;;;3.20;;
28762;SDS011;15918;51.270;6.522;2022-08-01T10:08:00;5.03;;;3.50;;
28762;SDS011;15918;51.270;6.522;2022-08-01T10:10:30;7.00;;;3.85;;
28762;SDS011;15918;51.270;6.522;2022-08-01T10:12:57;5.45;;;3.97;;
28762;SDS011;15918;51.270;6.522;2022-08-01T10:15:24;6.45;;;3.60;;
28762;SDS011;15918;51.270;6.522;2022-08-01T10:17:57;5.88;;;3.95;;
28762;SDS011;15918;51.270;6.522;2022-08-01T10:20:27;4.88;;;3.42;;
28762;SDS011;15918;51.270;6.522;2022-08-01T10:22:55;4.88;;;3.28;;
28762;SDS011;15918;51.270;6.522;2022-08-01T10:25:23;2.90;;;2.70;;
28762;SDS011;15918;51.270;6.522;2022-08-01T10:27:52;4.75;;;2.70;;
28762;SDS011;15918;51.270;6.522;2022-08-01T10:30:21;4.60;;;2.72;;
28762;SDS011;15918;51.270;6.522;2022-08-01T10:32:48;3.00;;;2.42;;
28762;SDS011;15918;51.270;6.522;2022-08-01T10:35:14;5.40;;;2.80;;
28762;SDS011;15918;51.270;6.522;2022-08-01T10:37:43;2.95;;;2.75;;
28762;SDS011;15918;51.270;6.522;2022-08-01T10:40:11;3.55;;;2.58;;
28762;SDS011;15918;51.270;6.522;2022-08-01T10:42:39;3.30;;;2.97;;
28762;SDS011;15918;51.270;6.522;2022-08-01T10:45:06;3.03;;;2.38;;
28762;SDS011;15918;51.270;6.522;2022-08-01T10:53:06;2.70;;;2.50;;
28762;SDS011;15918;51.270;6.522;2022-08-01T10:55:47;2.65;;;2.42;;
28762;SDS011;15918;51.270;6.522;2022-08-01T11:03:43;3.38;;;2.72;;
28762;SDS011;15918;51.270;6.522;2022-08-01T11:06:25;2.22;;;2.03;;
28762;SDS011;15918;51.270;6.522;2022-08-01T11:09:13;2.25;;;2.00;;
28762;SDS011;15918;51.270;6.522;2022-08-01T11:12:07;2.33;;;2.13;;
28762;SDS011;15918;51.270;6.522;2022-08-01T11:17:45;2.10;;;1.90;;
28762;SDS011;15918;51.270;6.522;2022-08-01T11:20:16;1.80;;;1.70;;
28762;SDS011;15918;51.270;6.522;2022-08-01T11:26:12;1.52;;;1.40;;
28762;SDS011;15918;51.270;6.522;2022-08-01T11:30:39;3.25;;;1.63;;
28762;SDS011;15918;51.270;6.522;2022-08-01T11:38:48;3.20;;;1.77;;
28762;SDS011;15918;51.270;6.522;2022-08-01T11:41:35;1.85;;;1.75;;
28762;SDS011;15918;51.270;6.522;2022-08-01T11:44:23;1.63;;;1.52;;
28762;SDS011;15918;51.270;6.522;2022-08-01T11:54:37;1.50;;;1.40;;
28762;SDS011;15918;51.270;6.522;2022-08-01T11:57:05;1.77;;;1.67;;
28762;SDS011;15918;51.270;6.522;2022-08-01T11:59:37;1.52;;;1.42;;
28762;SDS011;15918;51.270;6.522;2022-08-01T12:02:13;1.67;;;1.40;;
28762;SDS011;15918;51.270;6.522;2022-08-01T12:04:57;1.70;;;1.60;;
28762;SDS011;15918;51.270;6.522;2022-08-01T12:07:25;1.85;;;1.70;;
28762;SDS011;15918;51.270;6.522;2022-08-01T12:12:47;4.00;;;1.90;;
28762;SDS011;15918;51.270;6.522;2022-08-01T12:15:29;2.20;;;2.00;;
28762;SDS011;15918;51.270;6.522;2022-08-01T12:17:58;2.67;;;1.98;;
28762;SDS011;15918;51.270;6.522;2022-08-01T12:20:34;1.92;;;1.83;;
28762;SDS011;15918;51.270;6.522;2022-08-01T12:23:03;2.55;;;2.10;;
28762;SDS011;15918;51.270;6.522;2022-08-01T12:25:31;2.20;;;2.10;;
28762;SDS011;15918;51.270;6.522;2022-08-01T12:28:01;2.42;;;2.10;;
28762;SDS011;15918;51.270;6.522;2022-08-01T12:30:28;2.42;;;2.10;;
28762;SDS011;15918;51.270;6.522;2022-08-01T12:32:55;3.20;;;2.38;;
28762;SDS011;15918;51.270;6.522;2022-08-01T12:35:23;2.72;;;2.53;;
28762;SDS011;15918;51.270;6.522;2022-08-01T12:37:51;3.33;;;2.25;;
28762;SDS011;15918;51.270;6.522;2022-08-01T12:40:25;2.88;;;2.10;;
28762;SDS011;15918;51.270;6.522;2022-08-01T12:42:52;3.53;;;2.30;;
28762;SDS011;15918;51.270;6.522;2022-08-01T12:45:30;2.35;;;2.03;;
28762;SDS011;15918;51.270;6.522;2022-08-01T12:48:09;2.25;;;2.15;;
28762;SDS011;15918;51.270;6.522;2022-08-01T12:50:36;2.95;;;2.25;;
28762;SDS011;15918;51.270;6.522;2022-08-01T12:53:04;2.88;;;2.00;;
28762;SDS011;15918;51.270;6.522;2022-08-01T12:55:30;1.90;;;1.80;;
28762;SDS011;15918;51.270;6.522;2022-08-01T12:58:09;3.22;;;1.75;;
28762;SDS011;15918;51.270;6.522;2022-08-01T13:00:37;2.05;;;1.85;;
28762;SDS011;15918;51.270;6.522;2022-08-01T13:05:45;2.28;;;1.70;;
28762;SDS011;15918;51.270;6.522;2022-08-01T13:08:14;1.73;;;1.63;;
28762;SDS011;15918;51.270;6.522;2022-08-01T13:10:42;2.03;;;1.60;;
28762;SDS011;15918;51.270;6.522;2022-08-01T13:13:08;1.70;;;1.60;;
28762;SDS011;15918;51.270;6.522;2022-08-01T13:15:35;1.75;;;1.65;;
28762;SDS011;15918;51.270;6.522;2022-08-01T13:18:50;2.72;;;1.58;;
28762;SDS011;15918;51.270;6.522;2022-08-01T13:20:50;4.78;;;1.83;;
28762;SDS011;15918;51.270;6.522;2022-08-01T13:23:35;3.00;;;1.80;;
28762;SDS011;15918;51.270;6.522;2022-08-01T13:26:01;1.88;;;1.67;;
28762;SDS011;15918;51.270;6.522;2022-08-01T13:28:28;1.60;;;1.50;;
28762;SDS011;15918;51.270;6.522;2022-08-01T13:30:58;2.33;;;1.40;;
28762;SDS011;15918;51.270;6.522;2022-08-01T13:33:39;1.25;;;1.25;;
28762;SDS011;15918;51.270;6.522;2022-08-01T13:36:06;1.48;;;1.33;;
28762;SDS011;15918;51.270;6.522;2022-08-01T13:38:32;2.10;;;1.50;;
28762;SDS011;15918;51.270;6.522;2022-08-01T13:41:16;1.90;;;1.50;;
28762;SDS011;15918;51.270;6.522;2022-08-01T13:43:42;1.73;;;1.00;;
28762;SDS011;15918;51.270;6.522;2022-08-01T13:46:09;1.88;;;1.52;;
28762;SDS011;15918;51.270;6.522;2022-08-01T13:48:35;2.70;;;1.40;;
28762;SDS011;15918;51.270;6.522;2022-08-01T13:51:00;1.50;;;1.40;;
28762;SDS011;15918;51.270;6.522;2022-08-01T13:53:26;2.65;;;1.33;;
28762;SDS011;15918;51.270;6.522;2022-08-01T13:55:53;4.82;;;1.23;;
28762;SDS011;15918;51.270;6.522;2022-08-01T13:58:19;3.50;;;1.48;;
28762;SDS011;15918;51.270;6.522;2022-08-01T14:00:44;1.73;;;1.33;;
28762;SDS011;15918;51.270;6.522;2022-08-01T14:03:11;1.00;;;1.00;;
28762;SDS011;15918;51.270;6.522;2022-08-01T14:05:37;1.67;;;1.30;;
28762;SDS011;15918;51.270;6.522;2022-08-01T14:08:02;5.25;;;1.40;;
28762;SDS011;15918;51.270;6.522;2022-08-01T14:10:28;1.92;;;1.52;;
28762;SDS011;15918;51.270;6.522;2022-08-01T14:12:57;1.70;;;1.30;;
28762;SDS011;15918;51.270;6.522;2022-08-01T14:15:23;2.10;;;1.90;;
28762;SDS011;15918;51.270;6.522;2022-08-01T14:17:49;1.52;;;1.42;;
28762;SDS011;15918;51.270;6.522;2022-08-01T14:20:15;3.22;;;1.60;;
28762;SDS011;15918;51.270;6.522;2022-08-01T14:22:44;1.77;;;1.30;;
28762;SDS011;15918;51.270;6.522;2022-08-01T14:25:10;2.63;;;1.42;;
28762;SDS011;15918;51.270;6.522;2022-08-01T14:27:36;4.30;;;1.38;;
28762;SDS011;15918;51.270;6.522;2022-08-01T14:30:05;3.00;;;1.40;;
28762;SDS011;15918;51.270;6.522;2022-08-01T14:32:31;1.80;;;1.23;;
28762;SDS011;15918;51.270;6.522;2022-08-01T14:34:58;3.15;;;1.42;;
28762;SDS011;15918;51.270;6.522;2022-08-01T14:37:24;2.13;;;1.83;;
28762;SDS011;15918;51.270;6.522;2022-08-01T14:39:50;2.17;;;1.58;;
28762;SDS011;15918;51.270;6.522;2022-08-01T14:42:15;1.88;;;1.30;;
28762;SDS011;15918;51.270;6.522;2022-08-01T14:44:41;1.63;;;1.50;;
28762;SDS011;15918;51.270;6.522;2022-08-01T14:47:06;3.03;;;1.50;;
28762;SDS011;15918;51.270;6.522;2022-08-01T14:49:32;1.40;;;1.30;;
28762;SDS011;15918;51.270;6.522;2022-08-01T14:51:57;2.25;;;1.40;;
28762;SDS011;15918;51.270;6.522;2022-08-01T14:54:23;1.98;;;1.30;;
28762;SDS011;15918;51.270;6.522;2022-08-01T14:56:48;2.08;;;1.50;;
28762;SDS011;15918;51.270;6.522;2022-08-01T14:59:16;3.22;;;1.77;;
28762;SDS011;15918;51.270;6.522;2022-08-01T15:01:42;2.10;;;1.33;;
28762;SDS011;15918;51.270;6.522;2022-08-01T15:04:10;3.70;;;1.50;;
28762;SDS011;15918;51.270;6.522;2022-08-01T15:06:36;3.50;;;1.30;;
28762;SDS011;15918;51.270;6.522;2022-08-01T15:09:02;1.55;;;1.45;;
28762;SDS011;15918;51.270;6.522;2022-08-01T15:11:28;3.20;;;1.60;;
28762;SDS011;15918;51.270;6.522;2022-08-01T15:13:53;1.98;;;1.67;;
28762;SDS011;15918;51.270;6.522;2022-08-01T15:16:37;2.05;;;1.42;;
28762;SDS011;15918;51.270;6.522;2022-08-01T15:19:03;2.42;;;1.50;;
28762;SDS011;15918;51.270;6.522;2022-08-01T15:21:29;2.15;;;1.25;;
28762;SDS011;15918;51.270;6.522;2022-08-01T15:23:55;4.13;;;1.40;;
28762;SDS011;15918;51.270;6.522;2022-08-01T15:26:20;1.52;;;1.38;;
28762;SDS011;15918;51.270;6.522;2022-08-01T15:28:46;1.50;;;1.40;;
28762;SDS011;15918;51.270;6.522;2022-08-01T15:31:11;3.88;;;1.73;;
28762;SDS011;15918;51.270;6.522;2022-08-01T15:33:37;1.58;;;1.30;;
28762;SDS011;15918;51.270;6.522;2022-08-01T15:36:03;1.58;;;1.27;;
28762;SDS011;15918;51.270;6.522;2022-08-01T15:38:29;2.22;;;1.30;;
28762;SDS011;15918;51.270;6.522;2022-08-01T15:40:54;4.78;;;1.65;;